createdAt,value
2022-11-15T00:00:52.746Z,13.20
2022-11-15T00:03:21.200Z,11.55
2022-11-15T00:05:47.842Z,13.50
2022-11-15T00:08:14.608Z,11.98
2022-11-15T00:10:41.226Z,13.23
2022-11-15T00:13:12.499Z,13.75
2022-11-15T00:15:39.954Z,13.48
2022-11-15T00:18:07.284Z,13.25
2022-11-15T00:20:36.675Z,12.85
2022-11-15T00:23:04.632Z,13.90
2022-11-15T00:25:31.289Z,12.82
2022-11-15T00:27:58.646Z,13.55
2022-11-15T00:30:25.453Z,12.45
2022-11-15T00:32:51.891Z,12.27
2022-11-15T00:35:19.315Z,11.88
2022-11-15T00:37:47.429Z,11.90
2022-11-15T00:40:14.204Z,13.25
2022-11-15T00:42:41.016Z,12.45
2022-11-15T00:45:08.083Z,12.45
2022-11-15T00:47:34.440Z,12.95
2022-11-15T00:50:01.026Z,13.30
2022-11-15T00:52:27.461Z,13.13
2022-11-15T00:54:53.851Z,12.13
2022-11-15T00:57:20.224Z,12.05
2022-11-15T00:59:46.658Z,12.70
2022-11-15T01:02:22.283Z,11.95
2022-11-15T01:04:48.798Z,11.73
2022-11-15T01:07:15.320Z,12.30
2022-11-15T01:09:41.781Z,12.15
2022-11-15T01:12:08.341Z,11.52
2022-11-15T01:14:34.784Z,12.23
2022-11-15T01:17:01.227Z,12.52
2022-11-15T01:19:27.694Z,12.13
2022-11-15T01:21:54.077Z,12.10
2022-11-15T01:24:20.444Z,11.43
2022-11-15T01:26:46.890Z,10.63
2022-11-15T01:29:13.309Z,11.57
2022-11-15T01:31:39.775Z,10.85
2022-11-15T01:34:06.162Z,12.30
2022-11-15T01:36:32.549Z,11.48
2022-11-15T01:39:00.075Z,11.38
2022-11-15T01:41:29.062Z,11.48
2022-11-15T01:43:58.277Z,12.20
2022-11-15T01:46:34.759Z,11.57
2022-11-15T01:49:04.607Z,12.02
2022-11-15T01:51:32.849Z,10.88
2022-11-15T01:54:03.875Z,10.75
2022-11-15T01:58:58.269Z,10.98
2022-11-15T02:01:25.470Z,10.68
2022-11-15T02:04:06.967Z,11.00
2022-11-15T02:06:33.803Z,10.98
2022-11-15T02:09:00.718Z,11.27
2022-11-15T02:11:27.188Z,13.02
2022-11-15T02:13:53.777Z,11.20
2022-11-15T02:16:35.889Z,11.60
2022-11-15T02:19:41.514Z,10.65
2022-11-15T02:22:38.532Z,10.50
2022-11-15T02:25:30.034Z,11.15
2022-11-15T02:28:18.282Z,11.48
2022-11-15T02:30:56.870Z,11.20
2022-11-15T02:34:01.141Z,10.00
2022-11-15T02:37:00.666Z,10.27
2022-11-15T02:39:40.730Z,10.52
2022-11-15T02:42:33.295Z,10.52
2022-11-15T02:45:02.555Z,9.45
2022-11-15T02:47:31.163Z,11.32
2022-11-15T02:50:10.144Z,10.18
2022-11-15T02:52:36.511Z,11.13
2022-11-15T02:55:03.202Z,10.23
2022-11-15T02:57:48.289Z,9.30
2022-11-15T03:00:19.648Z,10.15
2022-11-15T03:03:38.885Z,11.32
2022-11-15T03:06:11.418Z,9.82
2022-11-15T03:09:05.225Z,10.95
2022-11-15T03:11:37.888Z,9.60
2022-11-15T03:14:29.443Z,10.02
2022-11-15T03:17:05.066Z,9.00
2022-11-15T03:19:42.290Z,9.77
2022-11-15T03:22:12.557Z,11.45
2022-11-15T03:24:39.450Z,10.57
2022-11-15T03:27:08.002Z,11.23
2022-11-15T03:29:38.655Z,9.82
2022-11-15T03:32:09.130Z,9.95
2022-11-15T03:34:47.747Z,10.75
2022-11-15T03:37:15.887Z,11.35
2022-11-15T03:39:43.353Z,10.35
2022-11-15T03:42:12.660Z,10.60
2022-11-15T03:45:03.697Z,12.70
2022-11-15T03:47:33.654Z,11.73
2022-11-15T03:50:03.874Z,11.27
2022-11-15T03:52:33.481Z,11.20
2022-11-15T03:55:01.609Z,9.90
2022-11-15T03:57:28.107Z,11.38
2022-11-15T03:59:54.544Z,10.52
2022-11-15T04:02:20.961Z,11.05
2022-11-15T04:04:47.430Z,10.80
2022-11-15T04:07:13.899Z,10.00
2022-11-15T04:09:59.164Z,9.90
2022-11-15T04:12:31.891Z,10.55
2022-11-15T04:15:10.589Z,9.85
2022-11-15T04:17:51.625Z,9.43
2022-11-15T04:23:34.541Z,10.00
2022-11-15T04:26:08.179Z,10.05
2022-11-15T04:28:34.796Z,9.00
2022-11-15T04:31:01.195Z,9.70
2022-11-15T04:33:27.580Z,10.10
2022-11-15T04:36:12.567Z,9.20
2022-11-15T04:38:38.926Z,9.38
2022-11-15T04:41:05.417Z,9.02
2022-11-15T04:43:32.416Z,8.75
2022-11-15T04:45:59.035Z,9.20
2022-11-15T04:48:25.447Z,9.13
2022-11-15T04:50:52.063Z,9.30
2022-11-15T04:53:18.443Z,9.57
2022-11-15T04:55:47.949Z,8.23
2022-11-15T04:58:14.477Z,8.48
2022-11-15T05:00:41.003Z,8.60
2022-11-15T05:03:25.711Z,9.15
2022-11-15T05:05:52.436Z,10.45
2022-11-15T05:08:18.866Z,9.38
2022-11-15T05:10:45.672Z,9.45
2022-11-15T05:13:12.066Z,7.70
2022-11-15T05:15:38.451Z,7.68
2022-11-15T05:18:05.017Z,9.18
2022-11-15T05:20:31.418Z,7.85
2022-11-15T05:22:57.845Z,8.38
2022-11-15T05:25:24.587Z,8.35
2022-11-15T05:27:50.990Z,7.97
2022-11-15T05:30:17.823Z,6.97
2022-11-15T05:32:45.147Z,8.40
2022-11-15T05:35:17.483Z,9.02
2022-11-15T05:37:43.952Z,7.75
2022-11-15T05:40:10.412Z,8.07
2022-11-15T05:42:36.906Z,6.80
2022-11-15T05:45:05.695Z,7.07
2022-11-15T05:47:32.490Z,7.35
2022-11-15T05:49:59.062Z,7.65
2022-11-15T05:52:29.105Z,7.35
2022-11-15T05:54:56.673Z,7.80
2022-11-15T05:57:23.185Z,7.97
2022-11-15T05:59:49.617Z,8.13
2022-11-15T06:02:16.194Z,8.68
2022-11-15T06:04:42.878Z,8.13
2022-11-15T06:07:09.304Z,8.82
2022-11-15T06:09:35.856Z,8.20
2022-11-15T06:12:02.223Z,8.98
2022-11-15T06:14:28.915Z,9.90
2022-11-15T06:16:55.357Z,9.65
2022-11-15T06:19:21.917Z,9.70
2022-11-15T06:21:48.341Z,7.97
2022-11-15T06:24:14.960Z,10.02
2022-11-15T06:26:41.361Z,10.27
2022-11-15T06:29:07.760Z,10.10
2022-11-15T06:31:35.448Z,11.07
2022-11-15T06:34:01.945Z,9.95
2022-11-15T06:36:28.359Z,10.07
2022-11-15T06:38:54.750Z,10.00
2022-11-15T06:41:22.170Z,9.95
2022-11-15T06:43:48.555Z,10.65
2022-11-15T06:46:15.211Z,10.48
2022-11-15T06:48:41.580Z,10.10
2022-11-15T06:51:09.032Z,9.40
2022-11-15T06:53:35.803Z,10.45
2022-11-15T06:56:04.662Z,9.75
2022-11-15T06:58:31.738Z,10.57
2022-11-15T07:01:10.018Z,9.90
2022-11-15T07:03:38.014Z,10.05
2022-11-15T07:06:07.443Z,9.20
2022-11-15T07:08:34.825Z,9.52
2022-11-15T07:11:03.130Z,9.43
2022-11-15T07:13:34.336Z,8.98
2022-11-15T07:16:06.418Z,7.57
2022-11-15T07:18:35.533Z,8.57
2022-11-15T07:21:03.893Z,7.72
2022-11-15T07:23:30.683Z,7.18
2022-11-15T07:25:59.048Z,7.30
2022-11-15T07:28:26.918Z,7.70
2022-11-15T07:30:53.422Z,7.85
2022-11-15T07:33:19.896Z,8.18
2022-11-15T07:35:49.199Z,7.82
2022-11-15T07:38:21.206Z,8.02
2022-11-15T07:40:47.933Z,7.63
2022-11-15T07:43:14.648Z,7.28
2022-11-15T07:45:45.995Z,7.07
2022-11-15T07:48:12.638Z,6.95
2022-11-15T07:50:43.051Z,7.22
2022-11-15T07:53:10.401Z,6.40
2022-11-15T07:55:36.882Z,5.63
2022-11-15T07:58:08.456Z,5.22
2022-11-15T08:00:35.599Z,5.22
2022-11-15T08:03:06.437Z,5.20
2022-11-15T08:05:33.296Z,4.90
2022-11-15T08:07:59.899Z,5.45
2022-11-15T08:10:27.524Z,5.70
2022-11-15T08:13:08.148Z,5.32
2022-11-15T08:15:35.463Z,6.32
2022-11-15T08:18:04.625Z,5.47
2022-11-15T08:20:31.832Z,5.80
2022-11-15T08:23:01.788Z,4.45
2022-11-15T08:25:30.045Z,3.60
2022-11-15T08:27:59.059Z,4.03
2022-11-15T08:30:26.025Z,3.63
2022-11-15T08:32:54.085Z,3.58
2022-11-15T08:35:24.858Z,2.72
2022-11-15T08:37:55.158Z,3.45
2022-11-15T08:40:21.882Z,3.15
2022-11-15T08:42:48.559Z,3.05
2022-11-15T08:45:15.717Z,2.80
2022-11-15T08:47:42.134Z,2.80
2022-11-15T08:50:09.003Z,2.95
2022-11-15T08:52:35.402Z,2.65
2022-11-15T08:55:03.985Z,2.78
2022-11-15T08:57:31.518Z,3.22
2022-11-15T08:59:58.184Z,3.60
2022-11-15T09:02:24.573Z,3.20
2022-11-15T09:04:51.088Z,3.30
2022-11-15T09:07:17.550Z,3.47
2022-11-15T09:09:44.190Z,4.03
2022-11-15T09:12:10.638Z,5.03
2022-11-15T09:14:37.103Z,4.10
2022-11-15T09:17:04.000Z,5.40
2022-11-15T09:19:30.468Z,6.03
2022-11-15T09:21:56.871Z,6.55
2022-11-15T09:24:23.479Z,6.85
2022-11-15T09:26:52.212Z,7.75
2022-11-15T09:29:19.567Z,9.30
2022-11-15T09:31:45.946Z,7.40
2022-11-15T09:34:12.722Z,8.07
2022-11-15T09:36:41.870Z,7.80
2022-11-15T09:39:08.328Z,6.55
2022-11-15T09:41:43.894Z,7.40
2022-11-15T09:44:13.294Z,7.45
2022-11-15T09:46:58.071Z,6.40
2022-11-15T09:49:24.696Z,6.50
2022-11-15T09:51:53.312Z,6.22
2022-11-15T09:57:34.231Z,5.00
2022-11-15T10:03:13.558Z,5.05
2022-11-15T10:05:45.351Z,4.70
2022-11-15T10:08:20.810Z,4.97
2022-11-15T10:11:00.592Z,4.70
2022-11-15T10:13:38.482Z,5.15
2022-11-15T10:16:29.159Z,4.78
2022-11-15T10:19:10.263Z,4.70
2022-11-15T10:24:29.030Z,3.40
2022-11-15T10:26:56.903Z,3.95
2022-11-15T10:29:27.021Z,3.63
2022-11-15T10:31:53.822Z,4.22
2022-11-15T10:34:22.715Z,2.83
2022-11-15T10:37:04.906Z,3.28
2022-11-15T10:39:31.521Z,3.00
2022-11-15T10:41:58.068Z,2.83
2022-11-15T10:44:30.293Z,3.92
2022-11-15T10:46:56.670Z,3.40
2022-11-15T10:49:26.877Z,3.33
2022-11-15T10:51:55.982Z,4.03
2022-11-15T10:54:26.648Z,3.38
2022-11-15T10:56:54.985Z,3.58
2022-11-15T10:59:28.378Z,3.85
2022-11-15T11:01:55.457Z,3.00
2022-11-15T11:04:22.367Z,3.15
2022-11-15T11:06:51.806Z,2.83
2022-11-15T11:09:30.432Z,2.60
2022-11-15T11:11:57.079Z,2.67
2022-11-15T11:14:27.995Z,2.53
2022-11-15T11:16:55.425Z,2.22
2022-11-15T11:19:48.015Z,2.40
2022-11-15T11:22:39.447Z,2.90
2022-11-15T11:25:20.722Z,2.90
2022-11-15T11:28:15.007Z,2.70
2022-11-15T11:31:01.471Z,2.80
2022-11-15T11:33:33.589Z,2.83
2022-11-15T11:36:27.755Z,2.80
2022-11-15T11:39:12.344Z,2.22
2022-11-15T11:41:57.146Z,2.05
2022-11-15T11:44:44.284Z,2.20
2022-11-15T11:47:13.623Z,1.98
2022-11-15T11:49:47.748Z,2.42
2022-11-15T11:52:18.984Z,2.05
2022-11-15T11:55:06.604Z,2.00
2022-11-15T11:58:12.456Z,1.90
2022-11-15T12:00:46.666Z,1.90
2022-11-15T12:03:42.612Z,1.80
2022-11-15T12:06:25.282Z,2.00
2022-11-15T12:08:55.616Z,1.60
2022-11-15T12:11:29.501Z,2.08
2022-11-15T12:14:01.260Z,2.00
2022-11-15T12:16:29.871Z,2.10
2022-11-15T12:19:00.553Z,1.98
2022-11-15T12:21:39.159Z,2.03
2022-11-15T12:24:09.679Z,2.00
2022-11-15T12:26:57.386Z,1.73
2022-11-15T12:29:45.812Z,1.83
2022-11-15T12:32:33.931Z,1.80
2022-11-15T12:35:01.839Z,1.80
2022-11-15T12:37:38.632Z,2.03
2022-11-15T12:40:13.995Z,1.80
2022-11-15T12:42:43.429Z,2.00
2022-11-15T12:45:48.588Z,1.73
2022-11-15T12:48:17.941Z,1.92
2022-11-15T12:50:54.355Z,1.90
2022-11-15T12:53:26.315Z,1.77
2022-11-15T12:56:04.497Z,2.00
2022-11-15T12:58:47.203Z,1.67
2022-11-15T13:01:31.473Z,2.40
2022-11-15T13:04:27.537Z,1.20
2022-11-15T13:07:02.553Z,1.52
2022-11-15T13:09:34.867Z,1.77
2022-11-15T13:12:04.949Z,1.65
2022-11-15T13:14:49.746Z,1.70
2022-11-15T13:17:24.626Z,2.67
2022-11-15T13:20:00.668Z,1.80
2022-11-15T13:22:52.231Z,1.40
2022-11-15T13:25:37.040Z,1.63
2022-11-15T13:28:15.078Z,1.45
2022-11-15T13:30:47.573Z,1.50
2022-11-15T13:33:19.920Z,1.70
2022-11-15T13:35:49.138Z,1.73
2022-11-15T13:38:36.874Z,1.40
2022-11-15T13:41:21.448Z,1.63
2022-11-15T13:43:51.051Z,1.60
2022-11-15T13:46:19.520Z,1.80
2022-11-15T13:48:47.718Z,1.50
2022-11-15T13:51:23.066Z,1.40
2022-11-15T13:53:56.218Z,1.55
2022-11-15T13:56:22.729Z,1.83
2022-11-15T13:58:49.189Z,1.90
2022-11-15T14:01:20.501Z,1.73
2022-11-15T14:03:56.685Z,1.63
2022-11-15T14:06:25.173Z,2.00
2022-11-15T14:08:58.460Z,1.60
2022-11-15T14:11:25.199Z,1.80
2022-11-15T14:14:09.815Z,1.60
2022-11-15T14:16:38.247Z,1.60
2022-11-15T14:19:06.343Z,1.80
2022-11-15T14:21:32.997Z,1.55
2022-11-15T14:24:19.819Z,1.75
2022-11-15T14:26:49.611Z,2.40
2022-11-15T14:29:30.017Z,1.75
2022-11-15T14:32:15.189Z,2.10
2022-11-15T14:34:41.569Z,2.30
2022-11-15T14:37:29.671Z,2.95
2022-11-15T14:39:56.389Z,2.05
2022-11-15T14:42:23.582Z,2.25
2022-11-15T14:44:50.231Z,1.92
2022-11-15T14:47:17.017Z,1.92
2022-11-15T14:49:43.814Z,2.10
2022-11-15T14:52:37.276Z,2.13
2022-11-15T14:55:11.554Z,1.80
2022-11-15T14:57:37.978Z,1.88
2022-11-15T15:00:05.671Z,2.22
2022-11-15T15:02:32.107Z,2.40
2022-11-15T15:05:01.983Z,2.42
2022-11-15T15:07:28.507Z,2.10
2022-11-15T15:10:06.780Z,2.35
2022-11-15T15:12:41.615Z,1.90
2022-11-15T15:15:16.736Z,2.30
2022-11-15T15:17:43.182Z,3.05
2022-11-15T15:20:10.628Z,3.03
2022-11-15T15:22:37.557Z,2.88
2022-11-15T15:25:05.683Z,3.03
2022-11-15T15:27:32.066Z,2.95
2022-11-15T15:29:58.428Z,2.55
2022-11-15T15:32:24.822Z,2.70
2022-11-15T15:34:51.228Z,2.67
2022-11-15T15:37:27.424Z,3.08
2022-11-15T15:39:57.635Z,3.22
2022-11-15T15:42:24.285Z,3.05
2022-11-15T15:44:51.249Z,3.15
2022-11-15T15:47:23.687Z,2.97
2022-11-15T15:49:51.143Z,3.40
2022-11-15T15:52:17.845Z,3.33
2022-11-15T15:54:44.265Z,2.80
2022-11-15T15:57:13.341Z,3.20
2022-11-15T15:59:39.882Z,3.70
2022-11-15T16:02:06.335Z,3.10
2022-11-15T16:04:32.952Z,3.65
2022-11-15T16:07:00.520Z,3.20
2022-11-15T16:09:46.028Z,3.28
2022-11-15T16:12:15.364Z,4.50
2022-11-15T16:14:41.947Z,3.60
2022-11-15T16:17:16.072Z,3.90
2022-11-15T16:19:46.000Z,3.20
2022-11-15T16:22:13.621Z,3.40
2022-11-15T16:24:40.926Z,3.70
2022-11-15T16:27:16.739Z,2.88
2022-11-15T16:29:47.369Z,3.97
2022-11-15T16:32:14.563Z,4.15
2022-11-15T16:34:46.134Z,3.70
2022-11-15T16:37:24.268Z,3.63
2022-11-15T16:39:50.859Z,3.53
2022-11-15T16:42:17.327Z,4.22
2022-11-15T16:44:44.832Z,4.28
2022-11-15T16:47:20.608Z,4.65
2022-11-15T16:49:47.535Z,4.13
2022-11-15T16:52:18.787Z,4.63
2022-11-15T16:54:47.480Z,4.38
2022-11-15T16:57:13.872Z,5.15
2022-11-15T16:59:40.269Z,5.18
2022-11-15T17:02:12.298Z,4.30
2022-11-15T17:04:38.831Z,4.25
2022-11-15T17:07:05.408Z,4.30
2022-11-15T17:09:32.973Z,4.25
2022-11-15T17:11:59.346Z,4.50
2022-11-15T17:14:25.723Z,4.60
2022-11-15T17:16:52.163Z,5.53
2022-11-15T17:19:20.915Z,4.75
2022-11-15T17:21:49.478Z,4.72
2022-11-15T17:24:15.869Z,4.40
2022-11-15T17:26:42.950Z,3.85
2022-11-15T17:29:09.491Z,4.28
2022-11-15T17:31:36.631Z,4.43
2022-11-15T17:34:04.321Z,3.63
2022-11-15T17:36:30.787Z,4.20
2022-11-15T17:38:59.708Z,3.55
2022-11-15T17:41:27.127Z,3.65
2022-11-15T17:43:53.823Z,3.40
2022-11-15T17:46:21.416Z,3.40
2022-11-15T17:48:48.501Z,3.33
2022-11-15T17:51:16.609Z,3.20
2022-11-15T17:53:45.076Z,3.55
2022-11-15T17:56:14.117Z,3.55
2022-11-15T17:58:40.764Z,3.38
2022-11-15T18:01:17.725Z,3.45
2022-11-15T18:03:44.259Z,3.03
2022-11-15T18:06:11.839Z,3.47
2022-11-15T18:08:40.030Z,3.13
2022-11-15T18:11:18.392Z,3.25
2022-11-15T18:13:51.916Z,2.95
2022-11-15T18:16:20.610Z,2.88
2022-11-15T18:18:47.307Z,3.10
2022-11-15T18:21:19.903Z,2.88
2022-11-15T18:23:46.482Z,3.15
2022-11-15T18:26:14.865Z,5.60
2022-11-15T18:28:43.233Z,3.55
2022-11-15T18:31:29.930Z,3.63
2022-11-15T18:33:58.774Z,4.40
2022-11-15T18:36:28.215Z,3.70
2022-11-15T18:39:00.043Z,2.92
2022-11-15T18:41:29.673Z,3.40
2022-11-15T18:43:57.336Z,3.60
2022-11-15T18:46:25.577Z,3.33
2022-11-15T18:48:53.405Z,3.70
2022-11-15T18:51:22.372Z,3.50
2022-11-15T18:53:49.069Z,3.38
2022-11-15T18:56:17.536Z,3.47
2022-11-15T18:58:45.898Z,3.60
2022-11-15T19:01:20.592Z,3.92
2022-11-15T19:03:49.106Z,3.40
2022-11-15T19:06:26.622Z,3.63
2022-11-15T19:08:54.622Z,3.42
2022-11-15T19:11:25.397Z,4.00
2022-11-15T19:14:14.872Z,3.70
2022-11-15T19:16:44.725Z,6.15
2022-11-15T19:19:17.033Z,6.13
2022-11-15T19:21:43.738Z,4.70
2022-11-15T19:24:10.472Z,3.97
2022-11-15T19:26:37.754Z,4.43
2022-11-15T19:29:05.083Z,5.00
2022-11-15T19:31:31.826Z,5.05
2022-11-15T19:34:00.007Z,7.68
2022-11-15T19:36:28.717Z,4.68
2022-11-15T19:38:56.002Z,5.57
2022-11-15T19:41:23.918Z,6.63
2022-11-15T19:43:53.175Z,4.95
2022-11-15T19:46:23.429Z,6.40
2022-11-15T19:48:50.833Z,5.85
2022-11-15T19:51:19.437Z,5.47
2022-11-15T19:53:45.988Z,5.07
2022-11-15T19:56:14.173Z,4.88
2022-11-15T19:58:41.328Z,5.25
2022-11-15T20:01:23.321Z,6.07
2022-11-15T20:03:51.247Z,5.18
2022-11-15T20:06:20.166Z,6.30
2022-11-15T20:08:47.783Z,9.52
2022-11-15T20:11:15.175Z,7.70
2022-11-15T20:13:42.153Z,5.93
2022-11-15T20:16:09.378Z,5.93
2022-11-15T20:18:36.450Z,6.25
2022-11-15T20:21:06.173Z,6.95
2022-11-15T20:23:32.927Z,6.13
2022-11-15T20:25:59.375Z,6.78
2022-11-15T20:28:27.411Z,7.13
2022-11-15T20:30:55.991Z,6.43
2022-11-15T20:33:22.901Z,6.85
2022-11-15T20:35:49.674Z,7.03
2022-11-15T20:38:16.568Z,5.70
2022-11-15T20:40:45.358Z,5.13
2022-11-15T20:43:13.817Z,6.55
2022-11-15T20:45:42.697Z,5.90
2022-11-15T20:48:09.335Z,5.97
2022-11-15T20:50:42.780Z,6.25
2022-11-15T20:53:11.509Z,6.68
2022-11-15T20:55:42.553Z,6.38
2022-11-15T21:00:36.825Z,6.07
2022-11-15T21:03:07.254Z,6.35
2022-11-15T21:05:36.267Z,6.35
2022-11-15T21:08:02.838Z,7.00
2022-11-15T21:10:47.822Z,6.80
2022-11-15T21:13:14.334Z,7.43
2022-11-15T21:15:41.433Z,6.75
2022-11-15T21:18:08.072Z,6.35
2022-11-15T21:20:34.700Z,7.07
2022-11-15T21:23:01.074Z,7.03
2022-11-15T21:25:27.746Z,6.72
2022-11-15T21:27:54.228Z,6.65
2022-11-15T21:30:20.784Z,6.95
2022-11-15T21:32:47.729Z,7.07
2022-11-15T21:35:14.343Z,7.18
2022-11-15T21:37:40.894Z,7.00
2022-11-15T21:40:08.350Z,6.60
2022-11-15T21:42:34.972Z,5.68
2022-11-15T21:45:01.385Z,6.22
2022-11-15T21:47:28.018Z,6.75
2022-11-15T21:49:54.719Z,7.70
2022-11-15T21:52:21.141Z,5.35
2022-11-15T21:54:47.555Z,7.45
2022-11-15T21:57:13.988Z,6.90
2022-11-15T22:00:00.359Z,7.10
2022-11-15T22:02:26.993Z,8.07
2022-11-15T22:04:53.478Z,7.45
2022-11-15T22:07:20.189Z,7.55
2022-11-15T22:09:46.674Z,7.88
2022-11-15T22:12:13.092Z,7.07
2022-11-15T22:14:39.518Z,7.22
2022-11-15T22:17:06.276Z,7.18
2022-11-15T22:19:32.700Z,7.90
2022-11-15T22:21:59.310Z,6.53
2022-11-15T22:24:25.977Z,6.50
2022-11-15T22:26:52.375Z,6.55
2022-11-15T22:29:18.937Z,7.80
2022-11-15T22:31:45.345Z,7.80
2022-11-15T22:34:11.717Z,6.75
2022-11-15T22:36:58.299Z,7.70
2022-11-15T22:39:24.911Z,7.55
2022-11-15T22:41:51.821Z,7.15
2022-11-15T22:44:18.495Z,7.70
2022-11-15T22:46:45.606Z,8.23
2022-11-15T22:49:12.030Z,8.52
2022-11-15T22:51:40.412Z,7.82
2022-11-15T22:54:07.567Z,7.85
2022-11-15T22:56:33.989Z,7.65
2022-11-15T22:59:00.411Z,7.35
2022-11-15T23:01:27.049Z,7.72
2022-11-15T23:03:53.515Z,8.15
2022-11-15T23:06:20.064Z,7.30
2022-11-15T23:08:46.541Z,8.35
2022-11-15T23:11:31.776Z,7.05
2022-11-15T23:13:58.374Z,8.20
2022-11-15T23:16:34.640Z,9.13
2022-11-15T23:19:06.878Z,7.82
2022-11-15T23:22:03.525Z,7.82
2022-11-15T23:24:31.254Z,7.75
2022-11-15T23:27:08.560Z,7.88
2022-11-15T23:29:56.681Z,8.15
2022-11-15T23:32:41.722Z,7.55
2022-11-15T23:35:08.588Z,7.97
2022-11-15T23:37:36.127Z,7.65
2022-11-15T23:40:02.622Z,7.82
2022-11-15T23:42:29.294Z,7.80
2022-11-15T23:44:55.758Z,7.72
2022-11-15T23:47:22.181Z,7.70
2022-11-15T23:49:48.818Z,8.35
2022-11-15T23:52:16.131Z,8.10
2022-11-15T23:54:44.122Z,8.20
2022-11-15T23:57:12.510Z,8.52
2022-11-15T23:59:40.076Z,8.02
